Time;durP1;ratioP1;P1;durP2;ratioP2;P2;SDS_P1;SDS_P2;PMS_P1;PMS_P2;Temp;Humidity;BMP_temperature;BMP_pressure;BME280_temperature;BME280_humidity;BME280_pressure;Samples;Min_cycle;Max_cycle;Signal;HPM_P1;HPM_P2
2021/11/24 00:00:44;;;;;;;121.90;51.00;;;;;;;2.97;97.10;102716.94;2080958;28;20768;-63
2021/11/24 00:01:46;;;;;;;272.60;48.17;;;;;;;2.99;97.49;102719.66;2072410;28;38655;-61
2021/11/24 00:02:49;;;;;;;372.75;60.55;;;;;;;2.99;97.38;102717.91;2073112;28;30663;-62
2021/11/24 00:03:51;;;;;;;262.90;63.35;;;;;;;3.02;97.46;102710.09;2081235;28;37545;-62
2021/11/24 00:04:54;;;;;;;339.92;60.65;;;;;;;3.03;97.29;102717.19;2082155;28;20128;-61
2021/11/24 00:05:55;;;;;;;404.02;60.90;;;;;;;3.04;97.17;102718.09;2081420;28;33843;-61
2021/11/24 00:07:00;;;;;;;252.75;57.22;;;;;;;3.05;97.46;102710.22;2081946;28;20034;-62
2021/11/24 00:08:02;;;;;;;268.20;59.53;;;;;;;3.08;97.22;102712.06;2081207;28;32723;-62
2021/11/24 00:09:04;;;;;;;578.92;74.18;;;;;;;3.09;97.42;102712.94;2081343;28;33374;-62
2021/11/24 00:10:07;;;;;;;342.42;61.15;;;;;;;3.10;97.21;102706.81;2081552;28;37739;-64
2021/11/24 00:11:11;;;;;;;258.02;55.25;;;;;;;3.11;97.40;102708.63;2082144;28;20046;-62
2021/11/24 00:12:13;;;;;;;473.35;69.50;;;;;;;3.16;97.45;102707.03;2080103;28;38529;-61
2021/11/24 00:13:15;;;;;;;230.65;57.95;;;;;;;3.16;97.20;102712.31;2083605;28;36840;-61
2021/11/24 00:14:21;;;;;;;263.27;60.25;;;;;;;3.16;97.57;102710.59;2085407;28;34958;-61
2021/11/24 00:15:22;;;;;;;205.10;46.90;;;;;;;3.18;97.56;102703.59;2081510;28;35985;-60
2021/11/24 00:16:29;;;;;;;227.95;50.22;;;;;;;3.18;97.38;102703.59;2081011;28;36203;-61
2021/11/24 00:17:31;;;;;;;234.88;55.03;;;;;;;3.21;97.15;102700.16;2081516;28;32071;-61
2021/11/24 00:18:33;;;;;;;254.57;61.28;;;;;;;3.22;97.44;102702.88;2081019;28;37415;-62
2021/11/24 00:19:35;;;;;;;193.98;58.50;;;;;;;3.25;97.29;102699.44;2081282;28;22919;-61
2021/11/24 00:20:36;;;;;;;232.75;48.05;;;;;;;3.25;97.45;102697.69;2080672;28;38285;-62
2021/11/24 00:21:38;;;;;;;284.00;57.78;;;;;;;3.27;97.69;102710.06;2081256;28;34800;-62
2021/11/24 00:22:40;;;;;;;227.32;52.83;;;;;;;3.27;97.41;102699.47;2081456;28;20127;-62
2021/11/24 00:23:42;;;;;;;274.70;57.95;;;;;;;3.28;97.30;102701.28;2080475;28;37340;-63
2021/11/24 00:24:43;;;;;;;221.25;63.42;;;;;;;3.32;97.46;102701.47;2079582;28;29247;-62
2021/11/24 00:25:45;;;;;;;225.48;58.65;;;;;;;3.34;97.32;102701.47;2081301;28;36709;-62
2021/11/24 00:26:47;;;;;;;237.35;55.92;;;;;;;3.37;97.60;102705.16;2081335;28;33751;-62
2021/11/24 00:27:49;;;;;;;218.32;52.05;;;;;;;3.36;97.51;102700.72;2072686;28;20217;-62
2021/11/24 00:28:51;;;;;;;222.02;60.85;;;;;;;3.39;97.49;102703.47;2073265;28;20809;-63
2021/11/24 00:29:55;;;;;;;215.32;62.70;;;;;;;3.43;97.47;102700.09;2081192;28;32074;-62
2021/11/24 00:30:57;;;;;;;184.77;63.15;;;;;;;3.43;97.82;102701.84;2081148;28;39689;-62
2021/11/24 00:32:01;;;;;;;265.77;68.97;;;;;;;3.46;97.94;102703.69;2081462;28;20181;-61
2021/11/24 00:33:03;;;;;;;227.07;67.63;;;;;;;3.44;97.59;102699.22;2081894;28;20977;-61
2021/11/24 00:34:05;;;;;;;241.32;61.00;;;;;;;3.48;97.94;102704.63;2072358;28;36052;-61
2021/11/24 00:35:08;;;;;;;248.98;63.92;;;;;;;3.48;97.74;102699.34;2072718;28;32979;-62
2021/11/24 00:36:09;;;;;;;274.02;69.93;;;;;;;3.50;97.81;102697.63;2080988;28;20081;-62
2021/11/24 00:37:14;;;;;;;198.48;56.97;;;;;;;3.52;97.60;102693.31;2080180;28;37124;-61
2021/11/24 00:38:16;;;;;;;267.58;60.05;;;;;;;3.53;97.83;102697.75;2081276;28;35471;-61
2021/11/24 00:39:17;;;;;;;244.30;57.63;;;;;;;3.54;97.68;102694.25;2080967;28;38504;-61
2021/11/24 00:40:19;;;;;;;199.10;59.85;;;;;;;3.55;97.65;102691.69;2081507;28;20962;-62
2021/11/24 00:41:21;;;;;;;229.02;62.80;;;;;;;3.57;97.84;102689.97;2080839;28;37271;-62
2021/11/24 00:42:23;;;;;;;236.93;63.38;;;;;;;3.59;97.78;102695.31;2081258;28;20042;-62
2021/11/24 00:43:26;;;;;;;192.27;58.30;;;;;;;3.60;97.81;102687.41;2072225;28;31714;-61
2021/11/24 00:44:28;;;;;;;227.20;64.45;;;;;;;3.67;97.80;102688.53;2074233;28;36721;-62
2021/11/24 00:45:31;;;;;;;261.80;66.03;;;;;;;3.69;97.58;102693.88;2081897;28;32269;-62
2021/11/24 00:46:33;;;;;;;269.55;66.38;;;;;;;3.71;97.88;102694.81;2081154;28;35832;-60
2021/11/24 00:47:39;;;;;;;309.20;68.97;;;;;;;3.72;97.90;102692.22;2081287;28;34888;-64
2021/11/24 00:48:43;;;;;;;347.30;68.45;;;;;;;3.74;97.74;102690.53;2081072;28;38397;-61
2021/11/24 00:49:45;;;;;;;300.80;69.40;;;;;;;3.76;97.70;102691.47;2081534;28;20131;-62
2021/11/24 00:50:47;;;;;;;393.52;77.60;;;;;;;3.78;97.97;102691.53;2081180;28;34603;-62
2021/11/24 00:51:50;;;;;;;219.13;64.65;;;;;;;3.78;97.82;102688.88;2071042;28;31664;-62
2021/11/24 00:52:52;;;;;;;237.43;61.67;;;;;;;3.79;97.76;102686.28;2073157;28;20185;-61
2021/11/24 00:53:54;;;;;;;238.57;66.22;;;;;;;3.80;97.98;102687.19;2080648;28;37263;-62
2021/11/24 00:54:59;;;;;;;320.90;69.93;;;;;;;3.81;97.93;102684.59;2081003;28;37024;-61
2021/11/24 00:56:01;;;;;;;251.45;69.05;;;;;;;3.81;97.73;102678.41;2080751;28;32042;-61
2021/11/24 00:57:04;;;;;;;279.70;64.53;;;;;;;3.85;97.90;102684.69;2080905;28;37772;-61
2021/11/24 00:58:08;;;;;;;267.70;57.00;;;;;;;3.83;97.81;102682.00;2072817;28;20035;-61
2021/11/24 00:59:10;;;;;;;225.45;58.13;;;;;;;3.85;98.06;102684.69;2073049;28;35948;-62
2021/11/24 01:00:15;;;;;;;243.82;59.92;;;;;;;3.83;97.77;102682.88;2080614;28;31785;-62
2021/11/24 01:01:16;;;;;;;275.95;60.60;;;;;;;3.88;97.90;102679.50;2082180;28;20116;-62
2021/11/24 01:02:20;;;;;;;230.50;59.28;;;;;;;3.87;97.78;102677.69;2071828;28;37053;-62
2021/11/24 01:03:22;;;;;;;237.88;56.05;;;;;;;3.87;97.70;102683.88;2072641;28;36505;-62
2021/11/24 01:04:24;;;;;;;288.45;66.00;;;;;;;3.88;97.80;102677.75;2081408;28;20035;-62
2021/11/24 01:05:26;;;;;;;221.23;56.72;;;;;;;3.88;97.93;102680.41;2081011;28;38181;-62
2021/11/24 01:06:28;;;;;;;195.75;57.58;;;;;;;3.88;97.89;102675.09;2072551;28;20132;-62
2021/11/24 01:07:30;;;;;;;223.05;62.25;;;;;;;3.89;97.61;102676.00;2070852;28;37628;-60
2021/11/24 01:08:32;;;;;;;152.93;55.70;;;;;;;3.90;97.91;102684.00;2081115;28;32020;-62
2021/11/24 01:09:33;;;;;;;212.18;60.60;;;;;;;3.89;97.89;102676.88;2080818;28;34960;-62
2021/11/24 01:10:35;;;;;;;259.73;59.53;;;;;;;3.93;97.92;102677.88;2080965;28;37905;-64
2021/11/24 01:11:40;;;;;;;229.13;53.72;;;;;;;3.93;97.81;102672.56;2081221;28;33449;-63
2021/11/24 01:12:44;;;;;;;189.00;56.55;;;;;;;3.92;97.89;102681.41;2080919;28;34382;-61
2021/11/24 01:13:47;;;;;;;318.77;63.00;;;;;;;3.94;97.79;102679.69;2071936;28;37387;-62
2021/11/24 01:14:49;;;;;;;220.88;55.55;;;;;;;3.94;97.78;102682.34;2073118;28;32943;-62
2021/11/24 01:15:51;;;;;;;218.00;55.70;;;;;;;3.95;97.85;102677.09;2082225;28;34815;-62
2021/11/24 01:16:53;;;;;;;204.02;60.35;;;;;;;3.97;98.04;102675.38;2081518;28;22042;-60
2021/11/24 01:17:55;;;;;;;240.85;56.03;;;;;;;3.97;97.70;102679.81;2072457;28;34953;-61
2021/11/24 01:18:57;;;;;;;198.25;61.67;;;;;;;3.98;98.01;102676.28;2072257;28;39833;-62
2021/11/24 01:19:59;;;;;;;308.25;63.47;;;;;;;3.96;97.88;102678.88;2072661;28;20121;-62
2021/11/24 01:21:01;;;;;;;171.45;44.88;;;;;;;3.95;97.76;102671.78;2072315;28;35858;-62
2021/11/24 01:22:03;;;;;;;175.05;56.83;;;;;;;3.95;97.76;102676.22;2080629;28;33947;-62
2021/11/24 01:23:05;;;;;;;182.13;61.25;;;;;;;3.98;97.87;102671.91;2081729;28;20172;-62
2021/11/24 01:24:09;;;;;;;227.80;65.00;;;;;;;3.97;97.75;102669.19;2081332;28;20176;-63
2021/11/24 01:25:12;;;;;;;194.43;59.45;;;;;;;3.96;97.84;102672.69;2080770;28;35603;-62
2021/11/24 01:26:15;;;;;;;187.27;59.70;;;;;;;3.96;97.85;102673.56;2081322;28;20057;-62
2021/11/24 01:27:17;;;;;;;162.30;50.33;;;;;;;3.91;97.62;102667.25;2080956;28;31716;-61
2021/11/24 01:28:19;;;;;;;151.18;49.17;;;;;;;3.88;97.70;102666.25;2080916;28;33404;-62
2021/11/24 01:29:21;;;;;;;186.77;53.63;;;;;;;3.86;97.78;102676.81;2080803;28;33693;-63
2021/11/24 01:30:26;;;;;;;152.32;55.80;;;;;;;3.85;97.90;102664.38;2080724;28;38468;-62
2021/11/24 01:31:30;;;;;;;168.30;55.53;;;;;;;3.82;97.81;102665.19;2080337;28;20127;-62
2021/11/24 01:32:32;;;;;;;180.30;56.28;;;;;;;3.79;97.59;102659.78;2080848;28;40017;-61
2021/11/24 01:33:34;;;;;;;146.00;48.42;;;;;;;3.74;97.64;102661.38;2081639;28;20030;-62
2021/11/24 01:34:35;;;;;;;127.28;48.25;;;;;;;3.71;97.71;102661.28;2080704;28;37467;-62
2021/11/24 01:35:40;;;;;;;162.98;50.97;;;;;;;3.70;97.85;102663.91;2081006;28;35410;-62
2021/11/24 01:36:42;;;;;;;173.15;51.53;;;;;;;3.68;97.59;102660.28;2080486;28;37697;-62
2021/11/24 01:37:43;;;;;;;153.98;54.35;;;;;;;3.65;97.39;102661.09;2080455;28;35169;-62
2021/11/24 01:38:47;;;;;;;147.50;54.33;;;;;;;3.67;97.53;102662.03;2080885;28;20466;-62
2021/11/24 01:39:53;;;;;;;126.03;49.72;;;;;;;3.70;97.65;102663.91;2081397;28;20828;-62
2021/11/24 01:40:56;;;;;;;148.50;45.35;;;;;;;3.66;97.60;102656.69;2080799;28;38393;-62
2021/11/24 01:41:59;;;;;;;128.77;47.30;;;;;;;3.65;97.42;102653.16;2081015;28;29365;-62
2021/11/24 01:43:01;;;;;;;160.07;53.00;;;;;;;3.66;97.60;102654.97;2080950;28;20128;-62
2021/11/24 01:44:06;;;;;;;125.75;46.13;;;;;;;3.63;97.38;102654.84;2080744;28;39614;-61
2021/11/24 01:45:11;;;;;;;126.35;41.15;;;;;;;3.61;97.58;102651.25;2080942;28;33415;-61
2021/11/24 01:46:13;;;;;;;109.38;38.92;;;;;;;3.59;97.42;102652.97;2082821;28;35693;-62
2021/11/24 01:47:15;;;;;;;147.80;56.15;;;;;;;3.68;97.69;102655.91;2080013;28;32959;-62
2021/11/24 01:48:17;;;;;;;128.50;51.55;;;;;;;3.63;97.58;102646.91;2081153;28;21251;-62
2021/11/24 01:49:19;;;;;;;145.20;48.63;;;;;;;3.61;97.50;102648.59;2072024;28;35273;-62
2021/11/24 01:50:21;;;;;;;124.82;47.90;;;;;;;3.60;97.27;102657.38;2072351;28;34499;-62
2021/11/24 01:51:23;;;;;;;139.60;47.50;;;;;;;3.63;97.63;102653.09;2072056;28;35610;-62
2021/11/24 01:52:25;;;;;;;135.35;46.13;;;;;;;3.65;97.44;102657.56;2071940;28;35328;-62
2021/11/24 01:53:28;;;;;;;131.05;45.13;;;;;;;3.65;97.68;102658.44;2080900;28;33009;-61
2021/11/24 01:54:32;;;;;;;135.65;49.92;;;;;;;3.65;97.64;102645.19;2080207;28;38382;-62
2021/11/24 01:55:37;;;;;;;126.30;42.83;;;;;;;3.65;97.65;102645.19;2080635;28;34147;-61
2021/11/24 01:56:39;;;;;;;133.38;53.40;;;;;;;3.70;97.58;102646.25;2081431;28;20038;-61
2021/11/24 01:57:49;;;;;;;138.55;52.63;;;;;;;3.67;97.62;102640.84;2071941;28;35402;-61
2021/11/24 01:58:51;;;;;;;133.27;54.53;;;;;;;3.69;97.44;102647.09;2073673;28;32406;-62
2021/11/24 01:59:53;;;;;;;142.63;53.60;;;;;;;3.70;97.55;102643.59;2080657;28;34589;-62
2021/11/24 02:00:55;;;;;;;152.63;54.55;;;;;;;3.72;97.56;102641.00;2071587;28;37380;-62
2021/11/24 02:01:57;;;;;;;154.77;52.70;;;;;;;3.75;97.76;102641.09;2072204;28;36433;-61
2021/11/24 02:03:02;;;;;;;137.57;45.90;;;;;;;3.69;97.40;102641.78;2080599;28;36839;-62
2021/11/24 02:04:04;;;;;;;133.63;49.10;;;;;;;3.72;97.64;102641.00;2080572;28;35455;-62
2021/11/24 02:05:07;;;;;;;148.35;54.00;;;;;;;3.74;97.81;102640.19;2081313;28;20038;-61
2021/11/24 02:06:09;;;;;;;165.25;56.38;;;;;;;3.77;97.90;102637.66;2080429;28;34778;-62
2021/11/24 02:07:11;;;;;;;128.73;46.97;;;;;;;3.79;97.70;102645.66;2081312;28;20911;-63
2021/11/24 02:08:13;;;;;;;143.35;48.60;;;;;;;3.80;97.78;102640.41;2080656;28;33399;-62
2021/11/24 02:09:15;;;;;;;143.18;48.53;;;;;;;3.82;97.99;102640.44;2080667;28;34478;-62
2021/11/24 02:10:21;;;;;;;125.85;45.95;;;;;;;3.85;97.85;102640.53;2080703;28;27533;-61
2021/11/24 02:11:23;;;;;;;123.15;40.20;;;;;;;3.86;97.83;102644.09;2080729;28;33801;-61
2021/11/24 02:12:25;;;;;;;150.45;50.95;;;;;;;3.90;97.88;102636.28;2081297;28;20041;-61
2021/11/24 02:13:30;;;;;;;164.65;56.05;;;;;;;3.95;97.83;102639.09;2080797;28;37121;-61
2021/11/24 02:14:32;;;;;;;154.75;52.20;;;;;;;3.98;97.89;102637.44;2080590;28;33386;-61
2021/11/24 02:15:35;;;;;;;165.05;51.45;;;;;;;3.99;97.84;102630.38;2080485;28;35212;-62
2021/11/24 02:16:46;;;;;;;162.88;49.50;;;;;;;4.01;97.74;102632.22;2083471;28;20054;-62
2021/11/24 02:17:49;;;;;;;161.35;55.13;;;;;;;4.03;97.81;102621.69;2081077;28;20951;-62
2021/11/24 02:18:50;;;;;;;157.05;54.20;;;;;;;4.04;97.85;102625.22;2080395;28;37771;-62
2021/11/24 02:19:52;;;;;;;163.48;50.75;;;;;;;4.06;97.82;102621.78;2080388;28;33356;-61
2021/11/24 02:20:54;;;;;;;161.18;49.15;;;;;;;4.07;98.00;102620.91;2081569;28;20042;-64
2021/11/24 02:21:56;;;;;;;154.70;51.20;;;;;;;4.06;97.74;102618.25;2080330;28;35930;-61
2021/11/24 02:22:58;;;;;;;156.52;48.15;;;;;;;4.08;97.96;102614.78;2080862;28;20131;-61
2021/11/24 02:23:59;;;;;;;141.73;47.42;;;;;;;4.06;97.94;102616.47;2080371;28;33555;-62
2021/11/24 02:25:01;;;;;;;164.20;55.13;;;;;;;4.10;97.75;102623.66;2081244;28;31166;-61
2021/11/24 02:26:03;;;;;;;155.43;57.17;;;;;;;4.15;98.00;102616.75;2080262;28;34525;-62
2021/11/24 02:27:09;;;;;;;168.50;59.33;;;;;;;4.16;97.96;102615.00;2080750;28;34948;-61
2021/11/24 02:28:13;;;;;;;162.40;48.92;;;;;;;4.14;97.99;102601.69;2079932;28;33538;-61
2021/11/24 02:29:15;;;;;;;137.30;51.78;;;;;;;4.16;97.85;102609.69;2079972;28;33572;-62
2021/11/24 02:30:17;;;;;;;156.68;54.45;;;;;;;4.20;97.78;102603.66;2080558;28;36340;-61
2021/11/24 02:31:26;;;;;;;145.77;47.67;;;;;;;4.17;97.89;102603.56;2080536;28;34654;-62
2021/11/24 02:32:30;;;;;;;134.10;45.22;;;;;;;4.19;97.99;102608.03;2080059;28;32564;-62
2021/11/24 02:33:34;;;;;;;149.98;49.58;;;;;;;4.20;98.12;102608.97;2079945;28;34927;-61
2021/11/24 02:34:38;;;;;;;153.38;51.45;;;;;;;4.20;98.01;102599.25;2081086;28;20038;-62
2021/11/24 02:35:45;;;;;;;153.00;53.88;;;;;;;4.26;98.01;102608.25;2080599;28;32849;-61
2021/11/24 02:36:47;;;;;;;150.10;51.53;;;;;;;4.22;97.83;102604.59;2080549;28;35112;-62
2021/11/24 02:37:49;;;;;;;152.45;52.40;;;;;;;4.19;97.95;102602.72;2079801;28;26356;-62
2021/11/24 02:38:54;;;;;;;140.77;48.78;;;;;;;4.20;97.97;102607.19;2079890;28;37825;-61
2021/11/24 02:39:56;;;;;;;141.27;50.83;;;;;;;4.23;98.01;102611.69;2080483;28;20129;-61
2021/11/24 02:40:59;;;;;;;154.85;50.45;;;;;;;4.20;98.00;102599.25;2079872;28;35998;-62
2021/11/24 02:42:01;;;;;;;132.15;46.30;;;;;;;4.18;97.76;102600.97;2080106;28;35037;-61
2021/11/24 02:43:04;;;;;;;124.10;42.53;;;;;;;4.19;97.95;102608.03;2073172;28;20104;-61
2021/11/24 02:44:38;;;;;;;137.88;48.78;;;;;;;4.19;97.72;102607.16;2080436;28;20161;-62
2021/11/24 02:45:41;;;;;;;119.63;44.83;;;;;;;4.18;97.97;102603.59;2075177;28;20062;-62
2021/11/24 02:46:44;;;;;;;124.07;45.88;;;;;;;4.19;98.24;102602.72;2073844;28;21045;-61
2021/11/24 02:47:46;;;;;;;144.65;52.03;;;;;;;4.25;98.22;102603.78;2072710;28;32313;-61
2021/11/24 02:48:47;;;;;;;141.85;48.22;;;;;;;4.25;97.86;102593.16;2072002;28;35888;-62
2021/11/24 02:49:54;;;;;;;128.32;48.38;;;;;;;4.26;97.82;102592.34;2071930;28;34157;-62
2021/11/24 02:50:56;;;;;;;141.02;54.50;;;;;;;4.35;97.83;102592.59;2072924;28;22531;-61
2021/11/24 02:51:58;;;;;;;142.93;50.97;;;;;;;4.34;97.86;102590.78;2072204;28;34436;-61
2021/11/24 02:53:00;;;;;;;138.35;49.72;;;;;;;4.34;97.89;102586.41;2071824;28;36397;-61
2021/11/24 02:54:02;;;;;;;151.63;51.72;;;;;;;4.37;97.86;102580.28;2071979;28;38470;-62
2021/11/24 02:55:06;;;;;;;154.20;54.03;;;;;;;4.37;98.13;102577.63;2072289;28;32404;-62
2021/11/24 02:56:08;;;;;;;142.30;52.42;;;;;;;4.41;98.11;102584.81;2071957;28;36190;-62
2021/11/24 02:57:12;;;;;;;148.57;52.72;;;;;;;4.46;97.93;102583.19;2072748;28;20050;-61
2021/11/24 02:58:14;;;;;;;167.38;56.45;;;;;;;4.49;97.97;102580.63;2071907;28;37112;-62
2021/11/24 02:59:16;;;;;;;159.90;52.83;;;;;;;4.50;98.10;102571.81;2072937;28;20753;-61
2021/11/24 03:00:20;;;;;;;153.90;52.85;;;;;;;4.53;97.93;102577.22;2072152;28;31332;-62
2021/11/24 03:01:22;;;;;;;171.95;56.20;;;;;;;4.56;97.92;102574.66;2072247;28;35437;-62
2021/11/24 03:02:26;;;;;;;157.18;51.33;;;;;;;4.58;97.99;102574.69;2072674;28;20046;-62
2021/11/24 03:03:28;;;;;;;157.27;54.25;;;;;;;4.63;98.16;102572.16;2072120;28;34868;-62
2021/11/24 03:04:32;;;;;;;160.90;50.45;;;;;;;4.63;98.15;102577.47;2071848;28;36361;-62
2021/11/24 03:05:35;;;;;;;157.95;52.05;;;;;;;4.66;97.95;102580.22;2080560;28;20053;-62
2021/11/24 03:06:37;;;;;;;156.30;51.22;;;;;;;4.66;98.38;102573.13;2079489;28;37565;-62
2021/11/24 03:07:39;;;;;;;162.27;52.78;;;;;;;4.70;98.33;102575.03;2079477;28;35225;-61
2021/11/24 03:08:41;;;;;;;158.95;53.17;;;;;;;4.71;98.20;102570.63;2079416;28;36003;-62
2021/11/24 03:09:45;;;;;;;144.10;46.78;;;;;;;4.74;98.17;102576.03;2072356;28;35211;-62
2021/11/24 03:10:49;;;;;;;160.68;50.28;;;;;;;4.76;98.45;102576.97;2072315;28;38314;-61
2021/11/24 03:11:53;;;;;;;151.55;52.17;;;;;;;4.78;98.59;102577.91;2072505;28;22455;-62
2021/11/24 03:13:00;;;;;;;146.27;51.70;;;;;;;4.79;98.14;102571.72;2072890;28;20043;-61
2021/11/24 03:14:02;;;;;;;150.90;52.15;;;;;;;4.81;98.36;102572.69;2072064;28;32663;-62
2021/11/24 03:15:10;;;;;;;149.90;49.20;;;;;;;4.84;98.27;102575.41;2071112;28;38428;-62
2021/11/24 03:16:15;;;;;;;144.23;50.35;;;;;;;4.84;98.14;102575.41;2072538;28;20910;-62
2021/11/24 03:17:17;;;;;;;143.68;46.72;;;;;;;4.86;98.26;102576.34;2072121;28;36168;-61
2021/11/24 03:18:19;;;;;;;157.50;52.90;;;;;;;4.89;98.30;102565.81;2072070;28;35325;-62
2021/11/24 03:19:23;;;;;;;155.85;51.72;;;;;;;4.89;97.93;102565.81;2072270;28;33241;-62
2021/11/24 03:20:28;;;;;;;124.45;44.25;;;;;;;4.89;98.42;102565.81;2071516;28;37673;-62
2021/11/24 03:21:32;;;;;;;122.80;44.92;;;;;;;4.90;98.20;102556.09;2072226;28;33734;-61
2021/11/24 03:22:35;;;;;;;131.30;49.17;;;;;;;4.92;98.37;102559.72;2071794;28;35812;-61
2021/11/24 03:23:36;;;;;;;140.70;50.67;;;;;;;4.93;98.27;102559.72;2071876;28;35444;-60
2021/11/24 03:24:38;;;;;;;135.70;49.08;;;;;;;4.96;98.00;102554.50;2072046;28;32534;-62
2021/11/24 03:25:40;;;;;;;137.48;42.88;;;;;;;4.96;98.07;102557.16;2071779;28;36332;-62
2021/11/24 03:26:42;;;;;;;124.35;40.90;;;;;;;4.96;98.15;102551.84;2071966;28;38364;-62
2021/11/24 03:27:46;;;;;;;126.07;46.30;;;;;;;4.98;98.35;102555.44;2072647;28;20054;-60
2021/11/24 03:28:47;;;;;;;135.20;45.88;;;;;;;5.00;98.26;102551.94;2072205;28;37536;-62
2021/11/24 03:29:52;;;;;;;127.40;44.08;;;;;;;5.02;98.17;102548.44;2071981;28;32103;-62
2021/11/24 03:30:54;;;;;;;129.45;43.05;;;;;;;5.04;97.99;102548.50;2072160;28;34929;-62
2021/11/24 03:31:55;;;;;;;146.18;44.97;;;;;;;5.06;97.98;102553.00;2072682;28;20124;-62
2021/11/24 03:33:01;;;;;;;113.05;39.33;;;;;;;5.06;98.22;102541.47;2072589;28;34371;-61
2021/11/24 03:34:03;;;;;;;129.88;40.47;;;;;;;5.08;98.10;102547.69;2071777;28;35881;-61
2021/11/24 03:35:06;;;;;;;127.22;45.05;;;;;;;5.09;97.97;102546.84;2071852;28;35437;-61
2021/11/24 03:36:08;;;;;;;123.07;42.20;;;;;;;5.09;98.15;102547.75;2071928;28;34392;-62
2021/11/24 03:37:10;;;;;;;136.98;45.97;;;;;;;5.11;98.09;102545.13;2071103;28;36689;-62
2021/11/24 03:38:15;;;;;;;134.07;43.20;;;;;;;5.12;98.34;102553.16;2071716;28;20993;-62
2021/11/24 03:39:16;;;;;;;141.57;41.97;;;;;;;5.15;98.18;102544.34;2079678;28;31272;-62
2021/11/24 03:40:24;;;;;;;122.82;43.15;;;;;;;5.15;98.30;102541.69;2080520;28;20042;-62
2021/11/24 03:41:26;;;;;;;114.90;42.95;;;;;;;5.17;98.38;102540.00;2079653;28;31861;-62
2021/11/24 03:42:28;;;;;;;118.68;42.22;;;;;;;5.16;98.21;102538.19;2078255;28;37723;-62
2021/11/24 03:43:30;;;;;;;117.35;39.53;;;;;;;5.18;98.22;102541.78;2072730;28;20112;-61
2021/11/24 03:44:32;;;;;;;114.65;41.78;;;;;;;5.19;98.13;102538.28;2071733;28;39291;-62
2021/11/24 03:45:37;;;;;;;117.03;42.72;;;;;;;5.20;98.14;102541.81;2072567;28;25959;-62
2021/11/24 03:46:38;;;;;;;115.63;43.25;;;;;;;5.22;98.18;102540.97;2079682;28;26243;-62
2021/11/24 03:47:44;;;;;;;125.30;44.20;;;;;;;5.22;98.25;102538.31;2078970;28;20046;-61
2021/11/24 03:48:46;;;;;;;117.60;40.13;;;;;;;5.22;97.99;102540.09;2072559;28;20057;-62
2021/11/24 03:49:50;;;;;;;131.43;41.58;;;;;;;5.24;98.03;102535.72;2071964;28;31977;-61
2021/11/24 03:50:54;;;;;;;120.72;39.80;;;;;;;5.24;98.21;102533.06;2072554;28;20112;-63
2021/11/24 03:51:56;;;;;;;109.18;37.80;;;;;;;5.24;98.03;102541.94;2072358;28;20098;-62
2021/11/24 03:52:58;;;;;;;126.88;42.70;;;;;;;5.25;98.11;102541.06;2071778;28;34070;-62
2021/11/24 03:54:00;;;;;;;107.18;39.65;;;;;;;5.26;98.00;102537.56;2072007;28;30819;-62
2021/11/24 03:55:05;;;;;;;106.20;41.63;;;;;;;5.26;98.34;102539.34;2072478;28;31689;-61
2021/11/24 03:56:09;;;;;;;102.38;38.95;;;;;;;5.28;98.05;102537.59;2072195;28;26324;-62
2021/11/24 03:57:11;;;;;;;113.03;39.20;;;;;;;5.29;98.34;102544.69;2072105;28;33616;-62
2021/11/24 03:58:13;;;;;;;103.70;38.55;;;;;;;5.29;98.15;102536.72;2071989;28;30674;-62
2021/11/24 03:59:15;;;;;;;102.93;39.30;;;;;;;5.31;98.30;102545.63;2071842;28;32507;-62
2021/11/24 04:00:22;;;;;;;100.07;35.58;;;;;;;5.32;98.20;102534.16;2072522;28;20050;-62
2021/11/24 04:01:24;;;;;;;126.63;40.63;;;;;;;5.32;98.13;102543.00;2079446;28;32271;-61
2021/11/24 04:02:26;;;;;;;103.85;39.25;;;;;;;5.33;98.12;102536.84;2078784;28;30514;-62
2021/11/24 04:03:28;;;;;;;113.47;41.00;;;;;;;5.34;98.12;102535.97;2071995;28;29692;-62
2021/11/24 04:04:30;;;;;;;107.75;35.45;;;;;;;5.35;98.17;102537.78;2071874;28;32232;-62
2021/11/24 04:05:33;;;;;;;115.30;40.13;;;;;;;5.35;97.90;102535.13;2072513;28;20043;-62
2021/11/24 04:06:35;;;;;;;102.95;36.40;;;;;;;5.37;98.06;102534.28;2071608;28;31879;-62
2021/11/24 04:07:37;;;;;;;118.82;40.47;;;;;;;5.39;98.20;102535.22;2072319;28;20244;-61
2021/11/24 04:08:39;;;;;;;118.18;37.45;;;;;;;5.39;98.36;102527.25;2072330;28;21252;-62
2021/11/24 04:09:41;;;;;;;109.47;39.85;;;;;;;5.37;98.35;102519.25;2072349;28;21654;-62
2021/11/24 04:10:42;;;;;;;102.93;37.22;;;;;;;5.40;98.13;102521.06;2071911;28;35294;-62
2021/11/24 04:11:44;;;;;;;106.07;36.33;;;;;;;5.40;98.10;102524.63;2072250;28;24502;-62
2021/11/24 04:12:47;;;;;;;92.90;35.92;;;;;;;5.41;98.12;102522.88;2072042;28;24449;-62
2021/11/24 04:13:48;;;;;;;110.28;35.47;;;;;;;5.42;98.27;102520.25;2072115;28;20046;-62
2021/11/24 04:14:50;;;;;;;104.43;38.40;;;;;;;5.43;98.00;102518.47;2071833;28;35489;-62
2021/11/24 04:15:54;;;;;;;112.72;35.38;;;;;;;5.43;98.29;102515.81;2072308;28;20038;-62
2021/11/24 04:16:56;;;;;;;107.43;37.90;;;;;;;5.44;97.84;102518.53;2071958;28;32825;-62
2021/11/24 04:17:58;;;;;;;99.57;35.65;;;;;;;5.44;98.23;102512.31;2072604;28;21860;-61
2021/11/24 04:19:01;;;;;;;98.18;33.38;;;;;;;5.44;98.12;102513.22;2071877;28;29331;-62
2021/11/24 04:20:05;;;;;;;97.97;35.28;;;;;;;5.45;97.85;102515.00;2072093;28;24482;-62
2021/11/24 04:21:07;;;;;;;94.18;30.30;;;;;;;5.45;98.08;102508.78;2072150;28;27824;-62
2021/11/24 04:22:09;;;;;;;99.38;36.65;;;;;;;5.44;98.19;102512.31;2072099;28;20042;-61
2021/11/24 04:23:12;;;;;;;94.30;34.25;;;;;;;5.45;98.31;102519.41;2071523;28;38512;-61
2021/11/24 04:24:16;;;;;;;90.43;33.38;;;;;;;5.46;98.25;102519.44;2071786;28;27048;-62
2021/11/24 04:25:18;;;;;;;98.35;34.53;;;;;;;5.45;98.27;102514.09;2071872;28;35874;-62
2021/11/24 04:26:20;;;;;;;96.78;34.30;;;;;;;5.47;98.01;102512.38;2072063;28;21540;-62
2021/11/24 04:27:22;;;;;;;88.68;34.38;;;;;;;5.47;98.06;102517.69;2072712;28;28873;-62
2021/11/24 04:28:24;;;;;;;86.20;32.53;;;;;;;5.47;98.09;102512.38;2073216;28;24997;-62
2021/11/24 04:29:26;;;;;;;88.10;34.10;;;;;;;5.48;97.96;102516.84;2073449;28;27486;-61
2021/11/24 04:30:28;;;;;;;85.47;32.92;;;;;;;5.48;97.93;102509.75;2073689;28;20038;-62
2021/11/24 04:31:30;;;;;;;88.25;34.97;;;;;;;5.49;98.01;102511.56;2072584;28;29247;-61
2021/11/24 04:32:35;;;;;;;96.25;34.45;;;;;;;5.48;98.06;102503.56;2073065;28;20038;-62
2021/11/24 04:33:38;;;;;;;82.35;34.05;;;;;;;5.49;98.53;102510.66;2073101;28;29467;-61
2021/11/24 04:34:44;;;;;;;94.20;28.02;;;;;;;5.50;98.22;102502.72;2073649;28;20895;-63
2021/11/24 04:35:48;;;;;;;77.75;30.92;;;;;;;5.51;98.30;102503.63;2081097;28;20752;-62
2021/11/24 04:36:50;;;;;;;81.00;33.22;;;;;;;5.53;98.25;102499.25;2080432;28;25648;-62
2021/11/24 04:37:53;;;;;;;81.32;33.80;;;;;;;5.52;98.05;102502.75;2071575;28;35691;-62
2021/11/24 04:38:54;;;;;;;76.75;32.60;;;;;;;5.52;98.17;102503.66;2073144;28;34129;-62
2021/11/24 04:39:56;;;;;;;89.45;31.33;;;;;;;5.53;97.88;102499.25;2073513;28;29892;-62
2021/11/24 04:40:58;;;;;;;79.15;30.80;;;;;;;5.53;98.25;102496.59;2080569;28;37182;-62
2021/11/24 04:42:00;;;;;;;78.82;31.50;;;;;;;5.52;97.87;102501.00;2080845;28;20038;-62
2021/11/24 04:43:05;;;;;;;94.05;32.35;;;;;;;5.52;98.26;102501.00;2065293;28;32266;-62
2021/11/24 04:44:07;;;;;;;78.60;28.20;;;;;;;5.53;98.15;102496.59;2065193;28;23279;-62
2021/11/24 04:45:09;;;;;;;83.63;30.33;;;;;;;5.51;97.92;102503.63;2072647;28;20167;-62
2021/11/24 04:46:13;;;;;;;79.90;27.13;;;;;;;5.52;98.16;102495.69;2072181;28;31888;-61